Middlebury, VT (05753)

6:11 AM EST on February 11, 2016 (GMT -0500)
EastView | | Change Station
CLOSE
Current Station
Personal Weather Station
Location: Middlebury, VT
Elevation: 390 ft
Nearby Weather Stations

Elev 390 ft 44.00 °N, 73.17 °W | Updated 11 minutes ago

Overcast
Overcast
19.8 °F
Feels Like 20 °F
N
1.0
Wind Variable Wind from SW
Gusts 2.0 mph

Today
High -- | Low -- °F
--% Chance of Precip.
Yesterday
High -- | Low -- °F
Precip. -- in
Pressure 29.67 in
Visibility 10.0 miles
Clouds Scattered Clouds 1300 ft
Mostly Cloudy 2000 ft
Overcast 2600 ft
Windchill 20 °F
Dew Point 18 °F
Humidity 91%
Rainfall 0.00 in
Snow Depth Not available.
6:58 AM 5:16 PM
Waxing Crescent, 11% visible
METAR K6B0 111055Z AUTO 00000KT 10SM SCT013 BKN020 OVC026 M06/M08 A2967 RMK AO2 T10601078
Pressure 29.67 in
Visibility 10.0 miles
Clouds Scattered Clouds 1300 ft
Mostly Cloudy 2000 ft
Overcast 2600 ft
Windchill 20 °F
Dew Point 18 °F
Humidity 91%
Rainfall 0.00 in
Snow Depth Not available.
6:58 AM 5:16 PM
Waxing Crescent, 11% visible
METAR K6B0 111055Z AUTO 00000KT 10SM SCT013 BKN020 OVC026 M06/M08 A2967 RMK AO2 T10601078

10-Day Weather Forecast

Almanac

Astronomy

Feb. 11, 2016 Rise Set
Actual Time
Civil Twilight
Nautical Twilight
Astronomical Twilight
Moon
Length of Visible Light
Length of Day
Tomorrow will be .
, % of the Moon is Illuminated

Today's Extremes

State Highs State Lows

Community

WunderPhotos

Upload Photos

1,892,030 photos uploaded!

WunderBlog® & News

Nearby

Air Quality

  Air Quality AQ Index Pollutant
Not available.

Snow Depth

Station Depth Elevation

Earthquake Activity

City Distance Mag. Time & Date
Minimum magnitude displayed is 2.5.

Coastal Water Temperatures

Place Temperature

Stations

Nearby Weather Stations

Station Location Temp. Windchill Dew Point Humidity Wind Precip. Elev Updated Type
                   

Watches & Warnings

There are currently no watches in effect.